Terminal Aerodrome Forecast
Issued by NWS

Home | Current Version | Previous Version | Graphics & Text | Print | Product List | Glossary On
Versions: 1 2 3 4 5 6 7 8 9 10 11 12 13 14 15 16 17 18 19 20 21 22
000
FTUS43 KGRB 241400 AAB
TAFAUW
TAF AMD
KAUW 241456Z 2415/2512 04006KT 1SM -DZSN BKN005
      TEMPO 2415/2417 3SM OVC015
     FM241700 35008KT P6SM -SN SCT008 OVC015
     FM250100 31006KT P6SM BKN015 OVC022
     FM250600 27008KT P6SM OVC024=

USA.gov is the U.S. government's official web portal to all federal, state and local government web resources and services.